Oil Finn — OJ9326 — position and weather

sailwx.info

Track history (hours):
 
Tides and Currents Weather Stations Pressure Air Temp Water Temp Dewpoint Dewpoint Depression Visibility Wind Speed Wind Dir Waves Ship Positions

Oil Finn

Last reported at 2016-Dec-10 15:32 UTC. Time now 2017-Feb-21 01:14 UTC.
Position N 60°11' E 024°58'.
Warning: this ship's position is months out of date.

Length 20 m; draft 2 m.

Type: Tanker. MMSI: 230033790.

Date/timePositionNaut miles runAvg speedWind from/ knotsBaromVisibWave heightAir tempDewpointWater temp
2016-Dec-10 15:32N 60°11' E 024°58'2 1.9
2016-Dec-10 14:34N 60°09' E 024°60'4 4.4
2016-Dec-10 13:33N 60°09' E 025°09'5 5.3
2016-Dec-10 12:34N 60°09' E 025°19'4 3.6
2016-Dec-10 11:33N 60°10' E 025°26'0 0.0
2016-Dec-10 10:32N 60°10' E 025°26'25 6.2
2016-Dec-10 06:33N 60°16' E 026°15'6 6.0
2016-Dec-10 05:33N 60°17' E 026°27'0 0.0
2016-Dec-09 14:33N 60°17' E 026°27'3 2.7
2016-Dec-09 13:33N 60°18' E 026°31'7 6.6
2016-Dec-09 12:33N 60°20' E 026°44'6 6.3
2016-Dec-09 11:33N 60°20' E 026°56'6 6.2
2016-Dec-09 10:33N 60°18' E 027°09'1 0.6
2016-Dec-09 08:33N 60°17' E 027°11'7 6.9
2016-Dec-09 07:33N 60°19' E 026°57'7 6.7
2016-Dec-09 06:33N 60°20' E 026°44'7 7.0
2016-Dec-09 05:33N 60°18' E 026°31'3 0.2
2016-Dec-08 14:12N 60°17' E 026°27'3 5.1
2016-Dec-08 13:33N 60°16' E 026°20'  
Track history (hours):
 
Tides and Currents Weather Stations Pressure Air Temp Water Temp Dewpoint Dewpoint Depression Visibility Wind Speed Wind Dir Waves Ship Positions

Oil Finn

Last reported at 2016-Dec-10 15:32 UTC. Time now 2017-Feb-21 01:14 UTC.
Position N 60°11' E 024°58'.
Warning: this ship's position is months out of date.

Length 20 m; draft 2 m.

Type: Tanker. MMSI: 230033790.

Date/timePositionNaut miles runAvg speedWind from/ knotsBaromVisibWave heightAir tempDewpointWater temp
2016-Dec-10 15:32N 60°11' E 024°58'2 1.9
2016-Dec-10 14:34N 60°09' E 024°60'4 4.4
2016-Dec-10 13:33N 60°09' E 025°09'5 5.3
2016-Dec-10 12:34N 60°09' E 025°19'4 3.6
2016-Dec-10 11:33N 60°10' E 025°26'0 0.0
2016-Dec-10 10:32N 60°10' E 025°26'25 6.2
2016-Dec-10 06:33N 60°16' E 026°15'6 6.0
2016-Dec-10 05:33N 60°17' E 026°27'0 0.0
2016-Dec-09 14:33N 60°17' E 026°27'3 2.7
2016-Dec-09 13:33N 60°18' E 026°31'7 6.6
2016-Dec-09 12:33N 60°20' E 026°44'6 6.3
2016-Dec-09 11:33N 60°20' E 026°56'6 6.2
2016-Dec-09 10:33N 60°18' E 027°09'1 0.6
2016-Dec-09 08:33N 60°17' E 027°11'7 6.9
2016-Dec-09 07:33N 60°19' E 026°57'7 6.7
2016-Dec-09 06:33N 60°20' E 026°44'7 7.0
2016-Dec-09 05:33N 60°18' E 026°31'3 0.2
2016-Dec-08 14:12N 60°17' E 026°27'3 5.1
2016-Dec-08 13:33N 60°16' E 026°20'  

Dump ship's entire track history